Погода Свечкина неделю

Минская область, Белоруссия

26 июня-02 июля
  • 26июня
    Сегодня
    +17°
    +26°
    Ясно и безоблачно
    ВремяПогодаТемператураВлажностьДавлениеВетер, м/сВероятность осадков
    00:00Ясно и безоблачно+17°C82 %750 мм2.2 м/с2 %
    03:00Ясно и безоблачно+15°C86 %751 мм2.6 м/с2 %
    06:00Ясно и безоблачно+15°C86 %751 мм1.6 м/с2 %
    09:00Ясно и безоблачно+20°C71 %751 мм1.0 м/с2 %
    12:00Ясно и безоблачно+24°C53 %751 мм2.6 м/с2 %
    15:00Ясно и безоблачно+26°C47 %750 мм2.3 м/с2 %
    18:00Ясно и безоблачно+26°C44 %749 мм2.1 м/с2 %
    21:00Ясно и безоблачно+23°C67 %748 мм1.6 м/с2 %
  • 27июня
    Четверг
    +16°
    +28°
    Ясно и безоблачно
    ВремяПогодаТемператураВлажностьДавлениеВетер, м/сВероятность осадков
    00:00Ясно и безоблачно+21°C58 %749 мм0.7 м/с2 %
    03:00Ясно и безоблачно+17°C70 %749 мм1.2 м/с2 %
    06:00Ясно и безоблачно+17°C73 %749 мм0.8 м/с2 %
    09:00Ясно и безоблачно+22°C67 %749 мм1.1 м/с2 %
    12:00Ясно и безоблачно+26°C55 %749 мм1.6 м/с2 %
    15:00Ясно и безоблачно+27°C49 %749 мм1.2 м/с2 %
    18:00Ясно и безоблачно+28°C49 %748 мм2.0 м/с2 %
    21:00Ясно и безоблачно+25°C70 %748 мм2.0 м/с2 %
  • 28июня
    Пятница
    +19°
    +29°
    Практически безоблачно
    ВремяПогодаТемператураВлажностьДавлениеВетер, м/сВероятность осадков
    00:00Ясно и безоблачно+20°C84 %749 мм2.0 м/с2 %
    03:00Ясно и безоблачно+17°C89 %748 мм2.0 м/с2 %
    06:00Ясно и безоблачно+18°C82 %749 мм2.5 м/с2 %
    09:00Ясно и безоблачно+24°C69 %749 мм2.2 м/с2 %
    12:00Практически безоблачно+27°C52 %749 мм3.6 м/с2 %
    15:00Практически безоблачно+29°C47 %748 мм3.6 м/с2 %
    18:00Ясно и безоблачно+29°C48 %747 мм4.4 м/с3 %
    21:00Ясно и безоблачно+25°C65 %747 мм2.5 м/с2 %
  • 29июня
    Суббота
    +15°
    +27°
    Пасмурно, дожди с грозами
    ВремяПогодаТемператураВлажностьДавлениеВетер, м/сВероятность осадков
    00:00Ясно и безоблачно+21°C69 %747 мм3.5 м/с2 %
    03:00Ясно и безоблачно+20°C68 %747 мм4.3 м/с2 %
    06:00Ясно и безоблачно+20°C70 %746 мм4.8 м/с2 %
    09:00Ясно и безоблачно+23°C64 %746 мм5.5 м/с4 %
    12:00Облачно с прояснениями+26°C64 %747 мм5.0 м/с30 %
    15:00Пасмурно, дожди с грозами+22°C84 %748 мм2.6 м/с63 %
    18:00Небольшая облачность и лёгкий дождик+26°C69 %747 мм3.8 м/с65 %
    21:00Ясно и безоблачно+23°C71 %747 мм2.9 м/с35 %
Мы используем cookies
Соглашаюсь